Time;durP1;ratioP1;P1;durP2;ratioP2;P2;SDS_P1;SDS_P2;PMS_P1;PMS_P2;Temp;Humidity;BMP_temperature;BMP_pressure;BME280_temperature;BME280_humidity;BME280_pressure;Samples;Min_cycle;Max_cycle;Signal;HPM_P1;HPM_P2
2022/02/21 00:00:36;;;;;;;2.58;0.17;;;6.80;99.90;;;;;;5016046;28;20094;-72
2022/02/21 00:03:02;;;;;;;6.28;0.63;;;6.80;99.90;;;;;;5018975;28;20022;-73
2022/02/21 00:05:28;;;;;;;7.18;0.08;;;6.80;99.90;;;;;;5035467;28;20029;-73
2022/02/21 00:07:53;;;;;;;7.22;0.10;;;6.80;99.90;;;;;;5018733;28;20025;-73
2022/02/21 00:10:19;;;;;;;6.10;0.10;;;6.80;99.90;;;;;;5036646;28;20026;-72
2022/02/21 00:12:45;;;;;;;5.30;1.25;;;6.80;99.90;;;;;;5036186;28;20029;-72
2022/02/21 00:15:15;;;;;;;6.60;0.35;;;6.80;99.90;;;;;;5036751;28;20029;-72
2022/02/21 00:17:41;;;;;;;11.82;0.93;;;6.80;99.90;;;;;;5018283;28;20022;-73
2022/02/21 00:20:07;;;;;;;4.30;0.00;;;6.80;99.90;;;;;;5036641;28;20027;-73
2022/02/21 00:22:33;;;;;;;4.03;0.30;;;6.80;99.90;;;;;;5036098;28;20021;-73
2022/02/21 00:24:58;;;;;;;7.03;1.20;;;6.80;99.90;;;;;;5036239;28;20554;-72
2022/02/21 00:27:24;;;;;;;32.72;2.28;;;6.80;99.90;;;;;;5018553;28;20025;-72
2022/02/21 00:29:49;;;;;;;4.93;0.30;;;6.70;99.90;;;;;;5036130;28;20026;-72
2022/02/21 00:32:15;;;;;;;3.30;0.40;;;6.70;99.90;;;;;;5036302;28;20079;-72
2022/02/21 00:34:41;;;;;;;6.13;0.05;;;6.70;99.90;;;;;;5017382;28;20394;-73
2022/02/21 00:37:06;;;;;;;7.82;0.70;;;6.60;99.90;;;;;;5035859;28;20029;-73
2022/02/21 00:39:32;;;;;;;6.15;0.10;;;6.60;99.90;;;;;;5018088;28;20017;-73
2022/02/21 00:41:57;;;;;;;8.23;0.45;;;6.60;99.90;;;;;;5036380;28;20033;-73
2022/02/21 00:44:23;;;;;;;7.00;0.77;;;6.50;99.90;;;;;;5036041;28;20502;-73
2022/02/21 00:46:48;;;;;;;10.65;1.15;;;6.40;99.90;;;;;;5035425;28;20018;-73
2022/02/21 00:49:14;;;;;;;8.07;0.10;;;6.40;99.90;;;;;;5035371;28;20018;-73
2022/02/21 00:51:39;;;;;;;9.30;0.57;;;6.30;99.90;;;;;;5036410;28;20101;-72
2022/02/21 00:54:05;;;;;;;8.40;0.55;;;6.30;99.90;;;;;;5035446;28;20116;-73
2022/02/21 00:56:30;;;;;;;6.35;1.45;;;6.20;99.90;;;;;;5017831;28;20064;-72
2022/02/21 00:58:56;;;;;;;10.93;1.55;;;6.20;99.90;;;;;;5035617;28;20076;-72
2022/02/21 01:01:22;;;;;;;7.03;0.17;;;6.20;99.90;;;;;;5035749;28;20025;-72
2022/02/21 01:03:47;;;;;;;10.90;0.52;;;6.20;99.90;;;;;;5017719;28;20021;-72
2022/02/21 01:06:17;;;;;;;15.77;0.93;;;6.20;99.90;;;;;;5035463;28;20024;-72
2022/02/21 01:08:43;;;;;;;8.07;0.00;;;6.20;99.90;;;;;;5017770;28;20075;-73
2022/02/21 01:11:09;;;;;;;5.38;0.17;;;6.20;99.90;;;;;;5035549;28;20502;-72
2022/02/21 01:13:34;;;;;;;7.38;0.28;;;6.20;99.90;;;;;;5017507;28;20017;-72
2022/02/21 01:16:00;;;;;;;3.88;0.10;;;6.20;99.90;;;;;;5035208;28;20527;-72
2022/02/21 01:18:25;;;;;;;9.80;0.38;;;6.20;99.90;;;;;;5035266;28;20033;-72
2022/02/21 01:20:51;;;;;;;6.45;0.03;;;6.20;99.90;;;;;;5035799;28;20029;-72
2022/02/21 01:23:19;;;;;;;8.60;0.40;;;6.10;99.90;;;;;;5035386;28;20017;-73
2022/02/21 01:25:45;;;;;;;11.90;0.80;;;6.10;99.90;;;;;;5017306;28;20268;-73
2022/02/21 01:28:10;;;;;;;10.77;0.30;;;6.10;99.90;;;;;;5035070;28;20057;-73
2022/02/21 01:30:36;;;;;;;9.32;0.13;;;6.00;99.90;;;;;;5034597;28;20032;-73
2022/02/21 01:33:02;;;;;;;9.95;0.52;;;6.00;99.90;;;;;;5035233;28;20484;-73
2022/02/21 01:35:27;;;;;;;3.30;0.68;;;6.00;99.90;;;;;;5017284;28;20028;-73
2022/02/21 01:37:53;;;;;;;6.00;0.35;;;6.00;99.90;;;;;;5033490;28;20018;-72
2022/02/21 01:40:20;;;;;;;10.13;0.40;;;6.00;99.90;;;;;;5034932;28;20026;-72
2022/02/21 01:42:46;;;;;;;5.45;0.43;;;6.00;99.90;;;;;;5016934;28;20021;-72
2022/02/21 01:45:12;;;;;;;9.68;0.73;;;6.10;99.90;;;;;;5016494;28;20068;-72
2022/02/21 01:47:37;;;;;;;8.15;0.85;;;6.00;99.90;;;;;;5034287;28;20053;-72
2022/02/21 01:50:03;;;;;;;5.85;0.35;;;6.10;99.90;;;;;;5034626;28;20096;-72
2022/02/21 01:52:29;;;;;;;7.85;0.47;;;6.00;99.90;;;;;;5016697;28;20032;-72
2022/02/21 01:54:55;;;;;;;8.50;0.68;;;6.00;99.90;;;;;;5016321;28;20418;-72
2022/02/21 01:57:21;;;;;;;12.80;0.00;;;6.00;99.90;;;;;;5034309;28;20139;-72
2022/02/21 01:59:46;;;;;;;5.35;0.60;;;6.00;99.90;;;;;;5034267;28;20022;-72
2022/02/21 02:02:12;;;;;;;5.97;0.35;;;6.00;99.90;;;;;;5016785;28;20028;-72
2022/02/21 02:04:38;;;;;;;5.07;0.35;;;6.00;99.90;;;;;;5033743;28;20387;-72
2022/02/21 02:07:05;;;;;;;20.20;1.20;;;5.90;99.90;;;;;;5034686;28;20022;-73
2022/02/21 02:09:31;;;;;;;15.50;0.30;;;6.00;99.90;;;;;;5034278;28;20036;-72
2022/02/21 02:11:57;;;;;;;5.18;0.20;;;6.00;99.90;;;;;;5034081;28;20354;-72
2022/02/21 02:14:42;;;;;;;9.00;0.47;;;5.90;99.90;;;;;;5034517;28;20029;-72
2022/02/21 02:17:11;;;;;;;8.63;0.85;;;5.90;99.90;;;;;;5034137;28;20390;-72
2022/02/21 02:19:38;;;;;;;7.55;0.35;;;5.90;99.90;;;;;;5034126;28;20033;-72
2022/02/21 02:22:23;;;;;;;7.00;1.00;;;5.80;99.90;;;;;;5033979;28;20048;-73
2022/02/21 02:24:51;;;;;;;5.57;0.30;;;5.80;99.90;;;;;;5033767;28;20510;-72
2022/02/21 02:27:21;;;;;;;6.28;0.13;;;5.80;99.90;;;;;;5033961;28;20021;-72
2022/02/21 02:29:55;;;;;;;6.05;0.20;;;5.80;99.90;;;;;;5016495;28;20083;-72
2022/02/21 02:32:22;;;;;;;8.63;0.22;;;5.90;99.90;;;;;;5014252;28;20033;-72
2022/02/21 02:34:48;;;;;;;7.35;0.45;;;5.80;99.90;;;;;;5014222;28;20386;-73
2022/02/21 02:37:15;;;;;;;6.90;0.85;;;5.90;99.90;;;;;;5014203;28;20029;-73
2022/02/21 02:39:41;;;;;;;2.80;0.05;;;5.80;99.90;;;;;;5013006;28;20172;-73
2022/02/21 02:42:08;;;;;;;8.70;0.45;;;5.80;99.90;;;;;;5013918;28;20108;-73
2022/02/21 02:44:33;;;;;;;5.47;0.80;;;5.80;99.90;;;;;;4996049;28;20026;-73
2022/02/21 02:46:59;;;;;;;5.40;0.40;;;5.80;99.90;;;;;;5032825;28;20025;-73
2022/02/21 02:49:25;;;;;;;5.97;0.28;;;5.80;99.90;;;;;;5033365;28;20549;-72
2022/02/21 02:51:50;;;;;;;9.88;1.23;;;5.80;99.90;;;;;;5033504;28;20034;-72
2022/02/21 02:54:16;;;;;;;13.80;0.77;;;5.90;99.90;;;;;;5032110;28;20053;-72
2022/02/21 02:56:43;;;;;;;9.43;0.30;;;5.90;99.90;;;;;;5032216;28;20079;-72
2022/02/21 02:59:09;;;;;;;5.18;0.43;;;5.90;99.90;;;;;;5015251;28;20025;-73
2022/02/21 03:01:35;;;;;;;5.13;0.28;;;5.80;99.90;;;;;;5033288;28;20021;-72
2022/02/21 03:04:01;;;;;;;9.88;0.45;;;5.80;99.90;;;;;;5033243;28;20025;-72
2022/02/21 03:06:28;;;;;;;5.32;0.35;;;5.70;99.90;;;;;;5033682;28;20471;-72
2022/02/21 03:08:54;;;;;;;5.80;0.32;;;5.70;99.90;;;;;;5033345;28;20493;-72
2022/02/21 03:11:19;;;;;;;9.75;0.25;;;5.60;99.90;;;;;;5033244;28;20022;-72
2022/02/21 03:13:45;;;;;;;6.22;0.00;;;5.60;99.90;;;;;;5033278;28;20040;-73
2022/02/21 03:16:10;;;;;;;6.35;0.43;;;5.60;99.90;;;;;;5033013;28;20026;-72
2022/02/21 03:18:36;;;;;;;3.95;0.00;;;5.60;99.90;;;;;;5033342;28;20043;-72
2022/02/21 03:21:02;;;;;;;10.38;0.60;;;5.60;99.90;;;;;;5015520;28;20021;-72
2022/02/21 03:23:27;;;;;;;6.65;0.40;;;5.70;99.90;;;;;;5033655;28;20068;-72
2022/02/21 03:25:53;;;;;;;3.83;0.28;;;5.70;99.90;;;;;;5033277;28;20475;-72
2022/02/21 03:28:19;;;;;;;7.88;1.17;;;5.60;99.90;;;;;;5015082;28;20033;-73
2022/02/21 03:30:46;;;;;;;3.28;0.10;;;5.50;99.90;;;;;;5015400;28;20067;-73
2022/02/21 03:33:12;;;;;;;9.38;0.75;;;5.50;99.90;;;;;;5033255;28;20025;-73
2022/02/21 03:35:37;;;;;;;6.03;0.47;;;5.50;99.90;;;;;;5034601;28;20404;-73
2022/02/21 03:38:03;;;;;;;7.57;0.10;;;5.50;99.90;;;;;;5037004;28;20497;-73
2022/02/21 03:40:29;;;;;;;8.25;0.88;;;5.40;99.90;;;;;;5037183;28;20097;-73
2022/02/21 03:42:55;;;;;;;4.20;0.13;;;5.40;99.90;;;;;;5036614;28;20059;-73
2022/02/21 03:45:22;;;;;;;10.38;0.70;;;5.50;99.90;;;;;;5036944;28;20049;-73
2022/02/21 03:47:49;;;;;;;13.68;0.65;;;5.50;99.90;;;;;;5019031;28;20021;-73
2022/02/21 03:50:14;;;;;;;12.52;0.80;;;5.50;99.90;;;;;;5036629;28;20037;-73
2022/02/21 03:52:40;;;;;;;7.32;0.20;;;5.50;99.90;;;;;;5019106;28;20021;-73
2022/02/21 03:55:06;;;;;;;10.82;0.63;;;5.50;99.90;;;;;;5018909;28;20391;-73
2022/02/21 03:57:32;;;;;;;11.48;0.20;;;5.50;99.90;;;;;;5018570;28;20025;-73
2022/02/21 03:59:57;;;;;;;13.45;0.73;;;5.50;99.90;;;;;;5036746;28;20022;-73
2022/02/21 04:02:23;;;;;;;9.90;1.00;;;5.60;99.90;;;;;;5018875;28;20021;-73
2022/02/21 04:04:49;;;;;;;9.30;1.08;;;5.60;99.90;;;;;;5036171;28;20021;-73
2022/02/21 04:07:14;;;;;;;9.55;0.90;;;5.50;99.90;;;;;;5036764;28;20022;-73
2022/02/21 04:09:40;;;;;;;4.32;0.65;;;5.50;99.90;;;;;;5018732;28;20021;-73
2022/02/21 04:12:07;;;;;;;17.08;1.77;;;5.50;99.90;;;;;;5018772;28;20034;-73
2022/02/21 04:14:33;;;;;;;8.10;0.20;;;5.40;99.90;;;;;;5036358;28;20482;-73
2022/02/21 04:16:58;;;;;;;7.13;0.10;;;5.50;99.90;;;;;;5018558;28;20021;-73
2022/02/21 04:19:25;;;;;;;4.15;0.45;;;5.40;99.90;;;;;;5018195;28;20040;-73
2022/02/21 04:21:50;;;;;;;7.25;0.30;;;5.40;99.90;;;;;;5036502;28;20480;-73
2022/02/21 04:24:16;;;;;;;8.13;0.60;;;5.30;99.90;;;;;;5036076;28;20035;-73
2022/02/21 04:26:42;;;;;;;4.40;0.25;;;5.30;99.90;;;;;;5036382;28;20017;-73
2022/02/21 04:29:07;;;;;;;19.83;1.42;;;5.30;99.90;;;;;;5036640;28;20014;-73
2022/02/21 04:31:33;;;;;;;7.63;0.88;;;5.30;99.90;;;;;;5018332;28;20025;-73
2022/02/21 04:33:58;;;;;;;7.22;0.57;;;5.30;99.90;;;;;;5035653;28;20029;-72
2022/02/21 04:36:24;;;;;;;3.83;0.10;;;5.30;99.90;;;;;;5035798;28;20037;-72
2022/02/21 04:38:49;;;;;;;7.45;0.13;;;5.30;99.90;;;;;;5018070;28;20080;-72
2022/02/21 04:41:15;;;;;;;17.02;2.40;;;5.30;99.90;;;;;;5035834;28;20435;-72
2022/02/21 04:43:41;;;;;;;11.63;0.35;;;5.30;99.90;;;;;;5035637;28;20022;-72
2022/02/21 04:46:07;;;;;;;10.82;2.17;;;5.30;99.90;;;;;;5035314;28;20045;-72
2022/02/21 04:48:33;;;;;;;12.73;1.05;;;5.30;99.90;;;;;;5035704;28;20029;-72
2022/02/21 04:50:58;;;;;;;10.38;0.20;;;5.30;99.90;;;;;;5035632;28;20038;-72
2022/02/21 04:53:24;;;;;;;10.48;0.30;;;5.30;99.90;;;;;;5017777;28;20386;-72
2022/02/21 04:55:50;;;;;;;7.05;1.30;;;5.30;99.90;;;;;;5017853;28;20037;-72
2022/02/21 04:58:16;;;;;;;7.82;0.28;;;5.30;99.90;;;;;;5035541;28;20037;-72
2022/02/21 05:00:41;;;;;;;6.38;0.00;;;5.30;99.90;;;;;;5017846;28;20024;-74
2022/02/21 05:03:07;;;;;;;8.13;0.35;;;5.30;99.90;;;;;;5035139;28;20441;-74
2022/02/21 05:05:32;;;;;;;9.18;0.60;;;5.40;99.90;;;;;;5034713;28;20030;-74
2022/02/21 05:07:58;;;;;;;6.68;0.00;;;5.40;99.90;;;;;;5035372;28;20067;-74
2022/02/21 05:10:26;;;;;;;6.93;0.50;;;5.30;99.90;;;;;;5035291;28;20094;-74
2022/02/21 05:12:52;;;;;;;4.03;0.20;;;5.30;99.90;;;;;;5034846;28;20052;-73
2022/02/21 05:15:18;;;;;;;5.90;0.20;;;5.30;99.90;;;;;;5017252;28;20033;-73
2022/02/21 05:17:43;;;;;;;9.65;0.90;;;5.30;99.90;;;;;;5035269;28;20164;-73
2022/02/21 05:20:10;;;;;;;9.50;0.30;;;5.20;99.90;;;;;;5035182;28;20021;-73
2022/02/21 05:22:36;;;;;;;10.32;0.52;;;5.20;99.90;;;;;;5035016;28;20033;-73
2022/02/21 05:25:03;;;;;;;7.30;0.55;;;5.20;99.90;;;;;;5035026;28;20024;-74
2022/02/21 05:27:32;;;;;;;5.35;0.15;;;5.10;99.90;;;;;;5035009;28;20029;-73
2022/02/21 05:29:58;;;;;;;12.45;0.32;;;5.10;99.90;;;;;;5034875;28;20529;-73
2022/02/21 05:32:25;;;;;;;8.35;0.43;;;5.00;99.90;;;;;;5034765;28;20120;-73
2022/02/21 05:34:53;;;;;;;6.57;0.40;;;5.00;99.90;;;;;;5034864;28;20109;-73
2022/02/21 05:37:19;;;;;;;9.00;0.45;;;5.00;99.90;;;;;;5034725;28;20044;-74
2022/02/21 05:39:44;;;;;;;11.90;1.05;;;5.00;99.90;;;;;;5034859;28;20025;-74
2022/02/21 05:42:10;;;;;;;13.10;0.13;;;5.00;99.90;;;;;;5034788;28;20022;-74
2022/02/21 05:44:35;;;;;;;11.43;0.77;;;5.00;99.90;;;;;;5034754;28;20024;-74
2022/02/21 05:47:01;;;;;;;10.70;0.43;;;5.00;99.90;;;;;;5034934;28;20013;-74
2022/02/21 05:49:27;;;;;;;8.80;0.43;;;5.00;99.90;;;;;;5034542;28;20036;-74
2022/02/21 05:51:52;;;;;;;23.50;1.20;;;5.00;99.90;;;;;;5016772;28;20112;-74
2022/02/21 05:54:18;;;;;;;5.72;0.10;;;5.00;99.90;;;;;;5034562;28;20056;-74
2022/02/21 05:56:44;;;;;;;15.15;0.08;;;4.90;99.90;;;;;;5034059;28;20028;-73
2022/02/21 05:59:10;;;;;;;11.50;0.65;;;4.90;99.90;;;;;;5033489;28;20665;-74
2022/02/21 06:01:35;;;;;;;15.07;2.47;;;4.90;99.90;;;;;;5034549;28;20045;-74
2022/02/21 06:04:01;;;;;;;8.63;0.20;;;4.90;99.90;;;;;;5034298;28;20022;-73
2022/02/21 06:06:26;;;;;;;9.48;0.17;;;4.90;99.90;;;;;;5034147;28;20140;-73
2022/02/21 06:08:52;;;;;;;11.27;0.47;;;4.90;99.90;;;;;;5034104;28;20021;-73
2022/02/21 06:11:17;;;;;;;6.70;0.38;;;5.00;99.90;;;;;;5016415;28;20017;-74
2022/02/21 06:13:43;;;;;;;12.85;0.93;;;5.00;99.90;;;;;;5034132;28;20075;-74
2022/02/21 06:16:08;;;;;;;6.82;0.75;;;5.00;99.90;;;;;;5034083;28;20075;-74
2022/02/21 06:18:35;;;;;;;12.23;0.20;;;5.10;99.90;;;;;;5033513;28;20029;-73
2022/02/21 06:21:00;;;;;;;5.20;0.20;;;5.10;99.90;;;;;;5033986;28;20084;-74
2022/02/21 06:23:26;;;;;;;10.48;0.20;;;5.10;99.90;;;;;;5033919;28;20474;-74
2022/02/21 06:25:52;;;;;;;3.63;0.20;;;5.10;99.90;;;;;;5015591;28;20021;-73
2022/02/21 06:28:17;;;;;;;9.15;0.85;;;5.20;99.90;;;;;;5033709;28;20037;-74
2022/02/21 06:30:43;;;;;;;8.75;0.65;;;5.20;99.90;;;;;;5016100;28;20506;-74
2022/02/21 06:33:08;;;;;;;11.60;0.40;;;5.30;99.90;;;;;;5034240;28;20033;-75
2022/02/21 06:35:34;;;;;;;19.90;0.85;;;5.30;99.90;;;;;;5015964;28;20037;-75
2022/02/21 06:38:00;;;;;;;8.77;0.43;;;5.40;99.90;;;;;;5015942;28;20030;-75
2022/02/21 06:40:26;;;;;;;10.00;0.80;;;5.40;99.90;;;;;;5033642;28;20030;-75
2022/02/21 06:42:53;;;;;;;5.55;0.68;;;5.40;99.90;;;;;;5033202;28;20052;-75
2022/02/21 06:45:19;;;;;;;6.18;0.73;;;5.40;99.90;;;;;;5015907;28;20478;-75
2022/02/21 06:47:45;;;;;;;8.55;0.45;;;5.30;99.90;;;;;;5016002;28;20079;-75
2022/02/21 06:50:10;;;;;;;6.03;0.10;;;5.30;99.90;;;;;;5015438;28;20033;-75
2022/02/21 06:52:36;;;;;;;4.35;0.70;;;5.30;99.90;;;;;;5033719;28;20017;-74
2022/02/21 06:55:03;;;;;;;9.07;0.93;;;5.30;99.90;;;;;;5034359;28;20075;-76
2022/02/21 06:57:29;;;;;;;9.45;0.57;;;5.30;99.90;;;;;;5033922;28;20101;-76
2022/02/21 06:59:55;;;;;;;11.75;0.75;;;5.20;99.90;;;;;;5034089;28;20113;-76
2022/02/21 07:02:21;;;;;;;14.02;1.08;;;5.20;99.90;;;;;;5017070;28;20478;-77
2022/02/21 07:04:47;;;;;;;6.43;0.38;;;5.20;99.90;;;;;;5034339;28;20390;-76
2022/02/21 07:07:12;;;;;;;14.10;0.75;;;5.20;99.90;;;;;;5034514;28;20037;-77
2022/02/21 07:09:38;;;;;;;9.02;0.47;;;5.20;99.90;;;;;;5034291;28;20030;-77
2022/02/21 07:12:04;;;;;;;11.23;0.65;;;5.10;99.90;;;;;;5034152;28;20030;-76
2022/02/21 07:14:30;;;;;;;3.65;0.00;;;5.20;99.90;;;;;;5033709;28;20026;-77
2022/02/21 07:16:55;;;;;;;7.00;0.55;;;5.10;99.90;;;;;;5015772;28;20021;-76
2022/02/21 07:19:21;;;;;;;7.18;0.15;;;5.20;99.90;;;;;;5033455;28;20025;-77
2022/02/21 07:21:47;;;;;;;8.23;0.22;;;5.20;99.90;;;;;;5033414;28;20018;-77
2022/02/21 07:24:12;;;;;;;5.25;0.40;;;5.30;99.90;;;;;;5033367;28;20029;-77
2022/02/21 07:26:39;;;;;;;6.13;0.20;;;5.40;99.90;;;;;;5033495;28;20028;-73
2022/02/21 07:29:06;;;;;;;14.95;0.75;;;5.40;99.90;;;;;;5033270;28;20040;-73
2022/02/21 07:31:32;;;;;;;8.15;0.20;;;5.40;99.90;;;;;;5033257;28;20494;-74
2022/02/21 07:33:57;;;;;;;5.50;0.68;;;5.50;99.90;;;;;;5015522;28;20022;-73
2022/02/21 07:36:24;;;;;;;11.15;0.63;;;5.50;99.90;;;;;;5033611;28;20474;-73
2022/02/21 07:38:51;;;;;;;12.70;0.65;;;5.60;99.90;;;;;;5033460;28;20075;-73
2022/02/21 07:41:16;;;;;;;12.07;0.15;;;5.70;99.90;;;;;;5033270;28;20018;-73
2022/02/21 07:43:42;;;;;;;10.20;1.08;;;5.70;99.90;;;;;;5033506;28;20021;-73
2022/02/21 07:46:08;;;;;;;13.70;1.60;;;5.80;99.90;;;;;;5033278;28;20021;-73
2022/02/21 07:48:34;;;;;;;5.57;0.38;;;5.90;99.90;;;;;;5033689;28;20449;-73
2022/02/21 07:51:00;;;;;;;14.02;1.08;;;5.90;99.90;;;;;;5033225;28;20068;-73
2022/02/21 07:53:26;;;;;;;7.75;0.75;;;6.00;99.90;;;;;;5015449;28;20405;-73
2022/02/21 07:55:52;;;;;;;14.23;0.95;;;6.00;99.90;;;;;;5033530;28;20024;-74
2022/02/21 07:58:20;;;;;;;17.85;0.60;;;6.00;99.90;;;;;;5033497;28;20021;-73
2022/02/21 08:00:46;;;;;;;8.60;0.45;;;6.00;99.90;;;;;;5032949;28;20025;-73
2022/02/21 08:03:11;;;;;;;27.55;2.22;;;6.00;99.90;;;;;;5033185;28;20100;-73
2022/02/21 08:05:38;;;;;;;11.80;0.95;;;6.00;99.90;;;;;;5015432;28;20359;-74
2022/02/21 08:08:07;;;;;;;10.27;0.43;;;6.00;99.90;;;;;;5033255;28;20139;-73
2022/02/21 08:10:32;;;;;;;;;;;5.90;99.90;;;;;;5033679;28;20076;-73
2022/02/21 08:12:58;;;;;;;11.82;0.65;;;5.90;99.90;;;;;;5015400;28;20000;-73
2022/02/21 08:15:24;;;;;;;13.30;1.50;;;6.00;99.90;;;;;;5033487;28;20025;-73
2022/02/21 08:17:50;;;;;;;9.43;2.08;;;5.90;99.90;;;;;;5033242;28;20026;-73
2022/02/21 08:20:18;;;;;;;12.35;1.60;;;5.80;99.90;;;;;;5015369;28;20036;-73
2022/02/21 08:22:44;;;;;;;8.32;1.75;;;5.70;99.90;;;;;;5036050;28;20044;-72
2022/02/21 08:25:11;;;;;;;5.68;0.30;;;5.40;99.90;;;;;;5036677;28;20475;-72
2022/02/21 08:27:38;;;;;;;7.05;0.20;;;5.10;99.90;;;;;;5036434;28;20029;-72
2022/02/21 08:30:07;;;;;;;3.72;0.63;;;4.90;99.90;;;;;;5036544;28;20128;-72
2022/02/21 08:32:32;;;;;;;4.43;0.30;;;4.70;99.90;;;;;;5036739;28;20060;-72
2022/02/21 08:34:58;;;;;;;6.18;0.38;;;4.60;99.90;;;;;;5018462;28;20391;-72
2022/02/21 08:37:23;;;;;;;14.77;1.45;;;4.50;99.90;;;;;;5036360;28;20029;-72
2022/02/21 08:39:49;;;;;;;16.40;0.65;;;4.40;99.90;;;;;;5036080;28;20426;-72
2022/02/21 08:42:15;;;;;;;11.68;0.60;;;4.40;99.90;;;;;;5018649;28;20017;-72
2022/02/21 08:44:40;;;;;;;5.05;0.30;;;4.40;99.90;;;;;;5036583;28;20525;-72
2022/02/21 08:47:06;;;;;;;9.15;0.52;;;4.40;99.90;;;;;;5035951;28;20386;-72
2022/02/21 08:49:31;;;;;;;6.88;0.15;;;4.40;99.90;;;;;;5018296;28;20033;-72
2022/02/21 08:51:57;;;;;;;6.38;0.43;;;4.30;99.90;;;;;;5036141;28;20030;-72
2022/02/21 08:54:23;;;;;;;8.90;0.52;;;4.20;99.90;;;;;;5036061;28;20072;-72
2022/02/21 08:56:49;;;;;;;16.75;0.98;;;4.20;99.90;;;;;;5035815;28;20501;-72
2022/02/21 08:59:18;;;;;;;8.63;0.10;;;4.20;99.90;;;;;;5036064;28;20386;-72
2022/02/21 09:01:44;;;;;;;31.30;1.10;;;4.20;99.90;;;;;;5035802;28;20021;-72
2022/02/21 09:04:11;;;;;;;9.38;0.80;;;4.20;99.90;;;;;;5018204;28;20021;-72
2022/02/21 09:06:37;;;;;;;13.75;1.27;;;4.20;99.90;;;;;;5017828;28;20509;-72
2022/02/21 09:09:03;;;;;;;8.77;0.65;;;4.20;99.90;;;;;;5035582;28;20021;-72
2022/02/21 09:11:29;;;;;;;8.98;0.77;;;4.20;99.90;;;;;;5036161;28;20030;-72
2022/02/21 09:13:54;;;;;;;19.48;1.27;;;4.10;99.90;;;;;;5035683;28;20022;-72
2022/02/21 09:16:20;;;;;;;7.05;0.32;;;4.10;99.90;;;;;;5035542;28;20025;-72
2022/02/21 09:18:45;;;;;;;8.70;0.73;;;4.10;99.90;;;;;;5035715;28;20113;-72
2022/02/21 09:21:11;;;;;;;16.27;0.90;;;4.10;99.90;;;;;;5035971;28;20028;-72
2022/02/21 09:23:37;;;;;;;10.40;1.20;;;4.00;99.90;;;;;;5035643;28;20032;-72
2022/02/21 09:26:02;;;;;;;18.67;1.20;;;4.10;99.90;;;;;;5035924;28;20021;-73
2022/02/21 09:28:28;;;;;;;19.23;0.95;;;4.10;99.90;;;;;;5017418;28;20017;-72
2022/02/21 09:30:55;;;;;;;19.83;1.23;;;4.10;99.90;;;;;;5035586;28;20505;-72
2022/02/21 09:33:21;;;;;;;15.25;2.20;;;4.10;99.90;;;;;;5034335;28;20021;-73
2022/02/21 09:35:47;;;;;;;14.50;1.17;;;4.10;99.90;;;;;;5035310;28;20081;-72
2022/02/21 09:38:12;;;;;;;7.85;0.80;;;4.10;99.90;;;;;;5035738;28;20283;-73
2022/02/21 09:40:40;;;;;;;10.35;1.40;;;4.10;99.90;;;;;;5035344;28;20442;-72
2022/02/21 09:43:06;;;;;;;10.55;1.23;;;4.10;99.90;;;;;;5035398;28;20027;-72
2022/02/21 09:45:32;;;;;;;17.20;0.70;;;4.10;99.90;;;;;;5035155;28;20036;-73
2022/02/21 09:47:59;;;;;;;16.80;1.67;;;4.10;99.90;;;;;;5017210;28;20017;-72
2022/02/21 09:50:25;;;;;;;11.27;0.85;;;4.10;99.90;;;;;;5034832;28;20032;-73
2022/02/21 09:52:50;;;;;;;12.35;0.40;;;4.10;99.90;;;;;;5034829;28;20048;-72
2022/02/21 09:55:16;;;;;;;17.42;1.27;;;4.20;99.90;;;;;;5034916;28;20029;-72
2022/02/21 09:57:42;;;;;;;13.68;2.15;;;4.30;99.90;;;;;;5035154;28;20075;-72
2022/02/21 10:00:08;;;;;;;19.08;0.77;;;4.30;99.90;;;;;;5016681;28;20027;-72
2022/02/21 10:02:34;;;;;;;10.48;1.65;;;4.30;99.90;;;;;;5034450;28;20029;-72
2022/02/21 10:05:13;;;;;;;15.23;0.47;;;4.40;99.90;;;;;;5034840;28;20021;-72
2022/02/21 10:07:39;;;;;;;;;;;4.50;99.90;;;;;;5017399;28;20091;-72
2022/02/21 10:10:09;;;;;;;10.73;1.08;;;4.50;99.90;;;;;;5034654;28;19905;-72
2022/02/21 10:12:57;;;;;;;16.83;1.02;;;4.70;99.90;;;;;;5034903;28;20030;-73
2022/02/21 10:15:29;;;;;;;14.82;0.73;;;4.70;99.90;;;;;;5016907;28;20425;-73
2022/02/21 10:18:12;;;;;;;17.80;0.63;;;4.80;99.90;;;;;;5034370;28;20029;-73
2022/02/21 10:20:51;;;;;;;12.02;1.75;;;4.90;99.90;;;;;;5034257;28;20434;-72
2022/02/21 10:23:16;;;;;;;6.60;1.30;;;5.00;99.90;;;;;;5016561;28;20025;-72
2022/02/21 10:25:53;;;;;;;7.45;0.55;;;5.00;99.90;;;;;;5016386;28;20031;-73
2022/02/21 10:28:48;;;;;;;17.80;2.75;;;5.10;99.90;;;;;;5034372;28;20562;-72
2022/02/21 10:31:20;;;;;;;19.00;2.78;;;5.20;99.90;;;;;;5013072;28;20413;-71
2022/02/21 10:34:01;;;;;;;13.90;0.95;;;5.40;99.90;;;;;;5016665;28;20117;-72
2022/02/21 10:36:35;;;;;;;22.95;1.40;;;5.40;99.90;;;;;;5016259;28;20032;-72
2022/02/21 10:39:10;;;;;;;20.50;1.50;;;5.50;99.90;;;;;;5016428;28;20116;-73
2022/02/21 10:41:50;;;;;;;18.60;2.97;;;5.50;99.90;;;;;;5033981;28;20022;-73
2022/02/21 10:44:21;;;;;;;25.90;1.40;;;5.50;99.90;;;;;;5033470;28;20036;-73
2022/02/21 10:47:00;;;;;;;14.55;1.45;;;5.60;99.90;;;;;;5016172;28;20029;-73
2022/02/21 10:49:27;;;;;;;17.40;1.25;;;5.60;99.90;;;;;;5033669;28;20037;-72
2022/02/21 10:51:55;;;;;;;26.95;0.85;;;5.60;99.90;;;;;;5015773;28;20039;-72
2022/02/21 10:54:28;;;;;;;20.93;1.73;;;5.60;99.90;;;;;;5033872;28;20026;-72
2022/02/21 10:56:53;;;;;;;16.23;1.13;;;5.60;99.90;;;;;;5033774;28;20079;-72
2022/02/21 10:59:20;;;;;;;13.13;1.83;;;5.60;99.90;;;;;;5033810;28;20025;-72
2022/02/21 11:01:49;;;;;;;16.92;1.35;;;5.70;99.90;;;;;;5033478;28;20025;-71
2022/02/21 11:04:15;;;;;;;24.85;2.25;;;5.70;99.90;;;;;;5033322;28;20017;-71
2022/02/21 11:06:42;;;;;;;26.40;1.02;;;5.80;99.90;;;;;;5015887;28;20021;-72
2022/02/21 11:09:08;;;;;;;17.90;1.33;;;5.80;99.90;;;;;;5015834;28;20021;-72
2022/02/21 11:11:37;;;;;;;16.70;1.83;;;5.90;99.90;;;;;;5033597;28;20026;-71
2022/02/21 11:14:04;;;;;;;20.77;2.50;;;5.90;99.90;;;;;;5033239;28;20037;-72
2022/02/21 11:16:34;;;;;;;24.08;0.90;;;6.00;99.90;;;;;;5033568;28;20021;-72
2022/02/21 11:19:00;;;;;;;18.23;1.25;;;6.00;99.90;;;;;;5033798;28;20024;-71
2022/02/21 11:21:26;;;;;;;27.73;1.25;;;6.00;99.90;;;;;;5033299;28;20032;-71
2022/02/21 11:23:52;;;;;;;20.92;1.35;;;6.10;99.90;;;;;;5015516;28;20414;-71
2022/02/21 11:26:25;;;;;;;30.13;1.88;;;6.20;99.90;;;;;;5033998;28;20021;-71
2022/02/21 11:28:57;;;;;;;17.38;1.05;;;6.20;99.90;;;;;;5033257;28;20497;-71
2022/02/21 11:31:33;;;;;;;18.45;1.20;;;6.30;99.90;;;;;;5033193;28;20441;-71
2022/02/21 11:34:06;;;;;;;19.73;1.38;;;6.30;99.90;;;;;;5033455;28;20470;-72
2022/02/21 11:36:36;;;;;;;20.73;1.55;;;6.30;99.90;;;;;;5015556;28;20120;-72
2022/02/21 11:39:36;;;;;;;13.73;2.25;;;6.40;99.90;;;;;;5033055;28;20068;-71
2022/02/21 11:42:17;;;;;;;4.10;0.32;;;6.50;99.90;;;;;;5015822;28;20057;-72
2022/02/21 11:44:47;;;;;;;22.58;2.83;;;6.60;99.90;;;;;;5033054;28;20135;-72
2022/02/21 11:47:32;;;;;;;26.02;1.75;;;6.70;99.90;;;;;;5015538;28;20021;-72
2022/02/21 11:49:59;;;;;;;19.27;1.15;;;6.70;99.90;;;;;;5033128;28;20116;-72
2022/02/21 11:52:35;;;;;;;23.73;2.38;;;6.80;99.90;;;;;;5032868;28;20071;-73
2022/02/21 11:55:02;;;;;;;18.67;1.33;;;6.90;99.90;;;;;;5033261;28;20085;-71
2022/02/21 11:57:36;;;;;;;15.32;1.58;;;6.90;99.90;;;;;;5017844;28;20060;-72
2022/02/21 12:00:40;;;;;;;27.63;1.50;;;7.00;99.90;;;;;;5036754;28;20433;-72
2022/02/21 12:03:07;;;;;;;23.10;1.95;;;7.00;99.90;;;;;;5019125;28;20510;-72
2022/02/21 12:05:32;;;;;;;12.45;1.73;;;7.10;99.90;;;;;;5036790;28;20471;-73
2022/02/21 12:07:58;;;;;;;18.48;1.63;;;7.20;99.90;;;;;;5036548;28;20022;-72
2022/02/21 12:10:24;;;;;;;16.92;1.27;;;7.30;99.90;;;;;;5036421;28;20027;-72
2022/02/21 12:13:08;;;;;;;11.85;1.27;;;7.40;99.90;;;;;;5037001;28;20014;-73
2022/02/21 12:15:35;;;;;;;13.20;0.90;;;7.50;99.90;;;;;;5036402;28;20025;-73
2022/02/21 12:18:24;;;;;;;15.35;1.50;;;7.60;99.90;;;;;;5036600;28;20021;-73
2022/02/21 12:21:08;;;;;;;8.45;0.60;;;7.70;99.90;;;;;;5036285;28;20021;-72
2022/02/21 12:23:34;;;;;;;19.52;1.48;;;7.80;99.90;;;;;;5036308;28;20029;-72
2022/02/21 12:26:00;;;;;;;16.63;1.58;;;7.80;99.90;;;;;;5036427;28;20405;-73
2022/02/21 12:28:28;;;;;;;13.50;1.20;;;7.80;99.90;;;;;;5036234;28;20109;-73
2022/02/21 12:30:55;;;;;;;25.45;1.25;;;7.70;99.90;;;;;;5018496;28;20025;-71
2022/02/21 12:33:25;;;;;;;4.45;0.00;;;7.60;99.90;;;;;;5036665;28;20021;-72
2022/02/21 12:36:05;;;;;;;13.38;0.90;;;7.50;99.90;;;;;;5037198;28;20029;-73
2022/02/21 12:38:42;;;;;;;9.13;0.57;;;7.70;99.90;;;;;;5036033;28;20072;-72
2022/02/21 12:41:11;;;;;;;15.10;1.80;;;7.90;99.90;;;;;;5036317;28;20101;-73
2022/02/21 12:43:48;;;;;;;;;;;8.00;99.90;;;;;;5036480;28;20074;-72
2022/02/21 12:46:15;;;;;;;14.98;1.27;;;8.00;99.90;;;;;;5035884;28;19916;-72
2022/02/21 12:48:40;;;;;;;17.42;1.27;;;8.00;99.90;;;;;;5018040;28;20065;-72
2022/02/21 12:51:17;;;;;;;6.68;0.50;;;7.80;99.90;;;;;;5036241;28;20037;-72
2022/02/21 12:53:51;;;;;;;12.02;1.27;;;7.80;99.90;;;;;;5018129;28;20025;-72